createdAt,value
2017-08-01T00:01:10.233Z,3.90
2017-08-01T00:03:38.602Z,3.50
2017-08-01T00:06:07.060Z,4.07
2017-08-01T00:08:34.656Z,3.87
2017-08-01T00:11:02.331Z,4.20
2017-08-01T00:13:29.987Z,4.20
2017-08-01T00:15:57.618Z,4.27
2017-08-01T00:18:25.229Z,5.33
2017-08-01T00:20:52.806Z,4.93
2017-08-01T00:23:20.397Z,5.70
2017-08-01T00:25:48.000Z,5.40
2017-08-01T00:28:15.786Z,6.10
2017-08-01T00:30:43.422Z,5.23
2017-08-01T00:33:11.042Z,5.30
2017-08-01T00:35:38.635Z,5.30
2017-08-01T00:38:06.356Z,5.20
2017-08-01T00:40:33.960Z,4.93
2017-08-01T00:43:01.645Z,4.13
2017-08-01T00:45:29.338Z,4.43
2017-08-01T00:47:57.489Z,3.97
2017-08-01T00:50:25.066Z,4.50
2017-08-01T00:52:52.703Z,4.50
2017-08-01T00:55:20.459Z,3.80
2017-08-01T00:57:48.042Z,4.70
2017-08-01T01:00:15.645Z,4.27
2017-08-01T01:02:44.133Z,4.87
2017-08-01T01:05:12.521Z,4.50
2017-08-01T01:07:40.156Z,5.30
2017-08-01T01:10:07.772Z,5.10
2017-08-01T01:12:35.473Z,5.07
2017-08-01T01:15:03.109Z,5.53
2017-08-01T01:17:30.720Z,4.83
2017-08-01T01:19:59.084Z,5.53
2017-08-01T01:22:26.760Z,5.90
2017-08-01T01:24:54.387Z,4.83
2017-08-01T01:27:21.977Z,5.03
2017-08-01T01:29:50.479Z,5.90
2017-08-01T01:32:18.136Z,6.80
2017-08-01T01:34:45.758Z,5.53
2017-08-01T01:37:13.358Z,6.23
2017-08-01T01:39:41.070Z,6.13
2017-08-01T01:42:08.676Z,5.30
2017-08-01T01:44:36.319Z,6.67
2017-08-01T01:47:04.095Z,5.20
2017-08-01T01:49:32.482Z,6.00
2017-08-01T01:52:00.126Z,6.27
2017-08-01T01:54:27.789Z,6.40
2017-08-01T01:56:55.411Z,7.30
2017-08-01T01:59:23.008Z,7.47
2017-08-01T02:01:50.654Z,7.60
2017-08-01T02:04:18.250Z,7.70
2017-08-01T02:06:45.959Z,6.70
2017-08-01T02:09:13.669Z,6.97
2017-08-01T02:11:41.391Z,6.47
2017-08-01T02:14:09.132Z,6.70
2017-08-01T02:16:36.796Z,6.97
2017-08-01T02:19:04.442Z,6.93
2017-08-01T02:21:32.048Z,7.27
2017-08-01T02:23:59.662Z,6.30
2017-08-01T02:26:27.261Z,5.33
2017-08-01T02:28:54.977Z,6.53
2017-08-01T02:31:22.584Z,6.00
2017-08-01T02:33:50.173Z,6.10
2017-08-01T02:36:18.951Z,6.27
2017-08-01T02:38:46.591Z,5.70
2017-08-01T02:41:14.213Z,5.40
2017-08-01T02:43:41.845Z,5.70
2017-08-01T02:46:09.530Z,5.50
2017-08-01T02:48:37.105Z,5.67
2017-08-01T02:51:04.680Z,5.23
2017-08-01T02:53:32.571Z,5.40
2017-08-01T02:56:00.160Z,5.10
2017-08-01T02:58:27.755Z,5.87
2017-08-01T03:00:55.542Z,5.87
2017-08-01T03:03:23.191Z,6.10
2017-08-01T03:05:50.798Z,5.77
2017-08-01T03:08:18.446Z,5.53
2017-08-01T03:10:46.107Z,6.10
2017-08-01T03:13:13.703Z,5.67
2017-08-01T03:15:42.082Z,6.40
2017-08-01T03:18:10.450Z,6.07
2017-08-01T03:20:38.135Z,6.53
2017-08-01T03:23:05.877Z,6.50
2017-08-01T03:25:34.273Z,6.70
2017-08-01T03:28:01.987Z,6.53
2017-08-01T03:30:29.610Z,5.60
2017-08-01T03:32:57.202Z,5.93
2017-08-01T03:35:24.929Z,6.57
2017-08-01T03:37:52.603Z,10.10
2017-08-01T03:40:20.198Z,10.43
2017-08-01T03:42:47.792Z,12.20
2017-08-01T03:45:16.580Z,9.90
2017-08-01T03:47:44.993Z,13.33
2017-08-01T03:50:12.594Z,16.10
2017-08-01T03:52:40.201Z,12.97
2017-08-01T03:55:07.913Z,11.93
2017-08-01T03:57:35.500Z,10.77
2017-08-01T04:00:03.882Z,7.97
2017-08-01T04:02:31.524Z,7.17
2017-08-01T04:04:59.114Z,7.03
2017-08-01T04:07:26.765Z,7.50
2017-08-01T04:09:55.366Z,6.77
2017-08-01T04:12:26.905Z,6.37
2017-08-01T04:14:55.564Z,7.20
2017-08-01T04:17:23.243Z,7.27
2017-08-01T04:19:51.068Z,8.20
2017-08-01T04:22:18.730Z,7.20
2017-08-01T04:24:46.387Z,7.20
2017-08-01T04:27:14.072Z,7.37
2017-08-01T04:29:41.801Z,6.90
2017-08-01T04:32:09.403Z,7.53
2017-08-01T04:34:37.187Z,8.17
2017-08-01T04:37:04.806Z,7.70
2017-08-01T04:39:32.395Z,7.53
2017-08-01T04:42:00.104Z,7.33
2017-08-01T04:44:27.712Z,7.33
2017-08-01T04:46:55.317Z,8.10
2017-08-01T04:49:23.282Z,7.40
2017-08-01T04:51:50.903Z,7.20
2017-08-01T04:54:18.497Z,6.83
2017-08-01T04:56:46.896Z,7.43
2017-08-01T04:59:14.552Z,7.50
2017-08-01T05:01:42.139Z,6.63
2017-08-01T05:04:09.758Z,7.53
2017-08-01T05:06:38.124Z,7.90
2017-08-01T05:09:06.615Z,7.67
2017-08-01T05:11:34.325Z,8.10
2017-08-01T05:14:01.911Z,7.17
2017-08-01T05:16:29.522Z,7.50
2017-08-01T05:18:57.127Z,7.63
2017-08-01T05:21:25.530Z,6.67
2017-08-01T05:23:53.151Z,7.83
2017-08-01T05:26:20.753Z,6.87
2017-08-01T05:28:48.336Z,7.00
2017-08-01T05:31:15.970Z,7.40
2017-08-01T05:33:43.600Z,7.70
2017-08-01T05:36:11.199Z,7.37
2017-08-01T05:38:39.407Z,7.40
2017-08-01T05:41:07.876Z,7.40
2017-08-01T05:43:35.623Z,8.00
2017-08-01T05:46:04.055Z,7.97
2017-08-01T05:48:31.657Z,7.80
2017-08-01T05:50:59.386Z,7.47
2017-08-01T05:53:27.793Z,7.00
2017-08-01T05:55:55.912Z,6.90
2017-08-01T05:58:24.051Z,9.30
2017-08-01T06:00:51.697Z,9.50
2017-08-01T06:03:19.483Z,8.30
2017-08-01T06:05:47.924Z,8.23
2017-08-01T06:08:15.616Z,7.43
2017-08-01T06:10:44.010Z,7.67
2017-08-01T06:13:11.956Z,6.80
2017-08-01T06:15:39.623Z,11.00
2017-08-01T06:18:08.021Z,8.33
2017-08-01T06:20:36.609Z,7.57
2017-08-01T06:23:04.193Z,7.27
2017-08-01T06:25:31.877Z,7.50
2017-08-01T06:27:59.474Z,7.33
2017-08-01T06:30:27.834Z,8.77
2017-08-01T06:32:55.543Z,7.63
2017-08-01T06:35:23.178Z,8.00
2017-08-01T06:37:51.661Z,8.80
2017-08-01T06:40:20.193Z,7.47
2017-08-01T06:42:48.018Z,8.60
2017-08-01T06:45:16.380Z,9.37
2017-08-01T06:47:44.011Z,8.87
2017-08-01T06:50:11.598Z,8.53
2017-08-01T06:52:39.191Z,7.70
2017-08-01T06:55:06.846Z,8.87
2017-08-01T06:57:34.533Z,8.70
2017-08-01T07:00:02.157Z,9.80
2017-08-01T07:02:30.533Z,21.20
2017-08-01T07:04:58.936Z,11.50
2017-08-01T07:07:26.558Z,12.80
2017-08-01T07:09:54.350Z,9.93
2017-08-01T07:12:22.694Z,10.47
2017-08-01T07:14:50.265Z,9.67
2017-08-01T07:17:17.945Z,12.63
2017-08-01T07:19:46.298Z,11.47
2017-08-01T07:22:14.318Z,12.73
2017-08-01T07:24:42.491Z,9.30
2017-08-01T07:27:10.558Z,9.13
2017-08-01T07:29:38.196Z,9.80
2017-08-01T07:32:06.619Z,15.73
2017-08-01T07:34:34.226Z,8.60
2017-08-01T07:37:01.809Z,9.43
2017-08-01T07:39:29.615Z,10.43
2017-08-01T07:41:57.237Z,10.40
2017-08-01T07:44:24.839Z,8.93
2017-08-01T07:46:52.525Z,8.10
2017-08-01T07:49:20.127Z,9.40
2017-08-01T07:51:47.755Z,9.47
2017-08-01T07:54:15.438Z,9.90
2017-08-01T07:56:43.804Z,8.93
2017-08-01T07:59:12.161Z,9.30
2017-08-01T08:01:40.348Z,9.10
2017-08-01T08:04:08.928Z,8.83
2017-08-01T08:06:36.670Z,9.40
2017-08-01T08:09:04.338Z,9.93
2017-08-01T08:11:31.947Z,9.67
2017-08-01T08:13:59.598Z,10.50
2017-08-01T08:16:28.028Z,9.97
2017-08-01T08:18:55.609Z,10.17
2017-08-01T08:21:23.212Z,10.20
2017-08-01T08:23:50.871Z,9.77
2017-08-01T08:26:18.458Z,9.30
2017-08-01T08:28:46.082Z,9.50
2017-08-01T08:31:14.661Z,9.83
2017-08-01T08:33:42.271Z,10.63
2017-08-01T08:36:09.879Z,11.03
2017-08-01T08:38:38.260Z,11.27
2017-08-01T08:41:06.669Z,10.80
2017-08-01T08:43:34.249Z,10.27
2017-08-01T08:46:01.939Z,10.50
2017-08-01T08:48:29.724Z,8.93
2017-08-01T08:50:58.083Z,9.70
2017-08-01T08:53:25.703Z,9.23
2017-08-01T08:55:53.906Z,8.40
2017-08-01T08:58:21.565Z,8.57
2017-08-01T09:00:57.322Z,8.50
2017-08-01T09:03:26.555Z,8.50
2017-08-01T09:05:55.056Z,8.47
2017-08-01T09:08:22.679Z,9.20
2017-08-01T09:10:50.436Z,8.40
2017-08-01T09:13:28.090Z,8.10
2017-08-01T09:15:58.854Z,7.60
2017-08-01T09:18:26.724Z,7.37
2017-08-01T09:20:54.346Z,7.27
2017-08-01T09:23:22.335Z,8.23
2017-08-01T09:25:50.542Z,8.00
2017-08-01T09:28:18.964Z,9.13
2017-08-01T09:30:46.661Z,9.57
2017-08-01T09:33:15.139Z,9.60
2017-08-01T09:35:43.111Z,8.80
2017-08-01T09:38:11.080Z,9.60
2017-08-01T09:40:38.656Z,9.40
2017-08-01T09:43:06.279Z,9.40
2017-08-01T09:45:33.963Z,10.00
2017-08-01T09:48:01.556Z,10.60
2017-08-01T09:50:29.163Z,10.20
2017-08-01T09:52:57.115Z,11.00
2017-08-01T09:55:25.563Z,11.63
2017-08-01T09:57:59.721Z,12.03
2017-08-01T10:00:27.387Z,12.90
2017-08-01T10:02:55.075Z,10.80
2017-08-01T10:05:22.849Z,11.93
2017-08-01T10:07:50.669Z,11.90
2017-08-01T10:10:18.282Z,12.00
2017-08-01T10:12:45.925Z,10.87
2017-08-01T10:15:14.478Z,11.63
2017-08-01T10:17:42.199Z,11.60
2017-08-01T10:20:09.940Z,12.53
2017-08-01T10:22:37.835Z,11.60
2017-08-01T10:25:06.622Z,11.40
2017-08-01T10:27:35.178Z,10.80
2017-08-01T10:30:02.887Z,10.80
2017-08-01T10:32:31.525Z,9.67
2017-08-01T10:34:59.628Z,8.57
2017-08-01T10:37:27.436Z,11.53
2017-08-01T10:39:55.199Z,11.20
2017-08-01T10:42:22.821Z,10.57
2017-08-01T10:44:50.418Z,10.00
2017-08-01T10:47:18.181Z,9.37
2017-08-01T10:49:46.091Z,7.90
2017-08-01T10:52:13.666Z,8.27
2017-08-01T10:54:41.405Z,8.10
2017-08-01T10:57:09.312Z,9.30
2017-08-01T10:59:36.889Z,7.77
2017-08-01T11:02:05.236Z,7.30
2017-08-01T11:04:32.898Z,8.60
2017-08-01T11:07:00.611Z,7.10
2017-08-01T11:09:28.666Z,7.30
2017-08-01T11:11:56.455Z,7.70
2017-08-01T11:14:24.318Z,7.47
2017-08-01T11:16:52.044Z,7.03
2017-08-01T11:19:19.649Z,7.80
2017-08-01T11:21:47.276Z,7.70
2017-08-01T11:24:16.272Z,7.03
2017-08-01T11:26:44.703Z,7.20
2017-08-01T11:29:12.444Z,7.43
2017-08-01T11:31:40.438Z,7.20
2017-08-01T11:34:08.292Z,8.10
2017-08-01T11:36:40.704Z,6.43
2017-08-01T11:39:08.425Z,5.50
2017-08-01T11:41:36.325Z,5.70
2017-08-01T11:44:04.715Z,5.10
2017-08-01T11:46:32.335Z,5.80
2017-08-01T11:49:00.109Z,6.57
2017-08-01T11:51:27.692Z,6.53
2017-08-01T11:53:55.378Z,7.70
2017-08-01T11:56:23.152Z,7.83
2017-08-01T11:58:50.725Z,7.30
2017-08-01T12:01:18.372Z,6.13
2017-08-01T12:03:46.016Z,7.43
2017-08-01T12:06:13.603Z,7.37
2017-08-01T12:08:41.979Z,8.03
2017-08-01T12:11:09.680Z,7.50
2017-08-01T12:13:37.303Z,7.30
2017-08-01T12:16:05.705Z,7.40
2017-08-01T12:18:33.312Z,6.77
2017-08-01T12:21:01.015Z,6.00
2017-08-01T12:23:29.523Z,7.60
2017-08-01T12:25:57.105Z,7.80
2017-08-01T12:28:24.693Z,8.53
2017-08-01T12:30:52.478Z,6.70
2017-08-01T12:33:24.353Z,6.00
2017-08-01T12:35:52.058Z,6.87
2017-08-01T12:38:19.643Z,6.27
2017-08-01T12:40:47.298Z,5.20
2017-08-01T12:43:15.008Z,4.10
2017-08-01T12:45:42.615Z,5.00
2017-08-01T12:48:10.189Z,4.30
2017-08-01T12:50:38.600Z,4.30
2017-08-01T12:53:06.339Z,4.83
2017-08-01T12:55:33.938Z,4.57
2017-08-01T12:58:01.575Z,4.23
2017-08-01T13:00:30.046Z,4.40
2017-08-01T13:02:58.400Z,3.60
2017-08-01T13:05:26.013Z,3.70
2017-08-01T13:07:53.600Z,4.10
2017-08-01T13:10:21.283Z,4.10
2017-08-01T13:12:48.951Z,4.03
2017-08-01T13:15:16.550Z,4.67
2017-08-01T13:17:44.279Z,5.40
2017-08-01T13:20:11.880Z,3.37
2017-08-01T13:22:39.531Z,4.03
2017-08-01T13:25:07.895Z,4.30
2017-08-01T13:27:36.391Z,4.40
2017-08-01T13:30:04.925Z,4.10
2017-08-01T13:32:32.496Z,5.10
2017-08-01T13:35:00.116Z,5.10
2017-08-01T13:37:28.923Z,4.43
2017-08-01T13:39:56.511Z,5.50
2017-08-01T13:42:24.138Z,5.10
2017-08-01T13:44:51.846Z,4.03
2017-08-01T13:47:19.454Z,4.23
2017-08-01T13:49:47.073Z,3.73
2017-08-01T13:52:15.420Z,5.20
2017-08-01T13:54:43.170Z,5.00
2017-08-01T13:57:10.821Z,5.60
2017-08-01T13:59:38.397Z,6.30
2017-08-01T14:02:06.035Z,5.00
2017-08-01T14:04:33.717Z,6.83
2017-08-01T14:07:01.327Z,5.80
2017-08-01T14:09:29.676Z,6.90
2017-08-01T14:11:57.341Z,6.30
2017-08-01T14:14:24.941Z,6.73
2017-08-01T14:16:53.329Z,6.60
2017-08-01T14:19:20.955Z,7.00
2017-08-01T14:21:48.657Z,6.63
2017-08-01T14:24:16.277Z,6.17
2017-08-01T14:26:43.910Z,5.80
2017-08-01T14:29:11.565Z,6.53
2017-08-01T14:31:39.154Z,6.87
2017-08-01T14:34:07.567Z,6.40
2017-08-01T14:36:35.905Z,6.20
2017-08-01T14:39:03.674Z,6.20
2017-08-01T14:41:31.326Z,6.40
2017-08-01T14:43:59.116Z,6.03
2017-08-01T14:46:26.772Z,5.90
2017-08-01T14:48:54.455Z,5.90
2017-08-01T14:51:22.821Z,5.87
2017-08-01T14:53:51.286Z,6.10
2017-08-01T14:56:19.078Z,4.90
2017-08-01T14:58:47.968Z,5.50
2017-08-01T15:01:15.712Z,6.40
2017-08-01T15:03:43.363Z,6.00
2017-08-01T15:06:11.178Z,6.33
2017-08-01T15:08:38.768Z,6.27
2017-08-01T15:11:06.435Z,6.83
2017-08-01T15:13:34.062Z,7.57
2017-08-01T15:16:02.727Z,7.97
2017-08-01T15:18:31.138Z,9.50
2017-08-01T15:20:59.706Z,8.80
2017-08-01T15:23:29.172Z,6.60
2017-08-01T15:25:57.167Z,7.23
2017-08-01T15:28:26.030Z,7.43
2017-08-01T15:30:54.475Z,8.20
2017-08-01T15:33:22.139Z,7.50
2017-08-01T15:35:49.748Z,8.27
2017-08-01T15:38:18.603Z,8.37
2017-08-01T15:40:46.788Z,7.03
2017-08-01T15:43:14.582Z,7.40
2017-08-01T15:45:42.288Z,8.80
2017-08-01T15:48:09.988Z,7.40
2017-08-01T15:50:37.642Z,7.77
2017-08-01T15:53:05.220Z,7.67
2017-08-01T15:55:32.864Z,9.53
2017-08-01T15:58:00.489Z,9.20
2017-08-01T16:00:28.124Z,10.30
2017-08-01T16:02:55.747Z,8.90
2017-08-01T16:05:23.378Z,10.50
2017-08-01T16:07:51.032Z,11.40
2017-08-01T16:10:18.655Z,10.60
2017-08-01T16:12:46.292Z,11.67
2017-08-01T16:15:13.952Z,10.47
2017-08-01T16:17:41.565Z,10.83
2017-08-01T16:20:10.199Z,14.70
2017-08-01T16:22:37.872Z,12.80
2017-08-01T16:25:05.492Z,11.67
2017-08-01T16:27:33.081Z,12.33
2017-08-01T16:30:01.316Z,14.57
2017-08-01T16:32:29.813Z,14.20
2017-08-01T16:34:57.838Z,15.17
2017-08-01T16:37:26.241Z,14.73
2017-08-01T16:39:54.817Z,13.80
2017-08-01T16:42:23.173Z,12.07
2017-08-01T16:44:50.767Z,14.30
2017-08-01T16:47:18.471Z,16.00
2017-08-01T16:49:46.075Z,13.67
2017-08-01T16:52:13.857Z,13.00
2017-08-01T16:54:42.270Z,13.07
2017-08-01T16:57:09.949Z,12.97
2017-08-01T16:59:37.598Z,13.80
2017-08-01T17:02:05.240Z,14.60
2017-08-01T17:04:32.865Z,13.93
2017-08-01T17:07:01.305Z,16.07
2017-08-01T17:09:29.260Z,14.57
2017-08-01T17:11:56.887Z,14.10
2017-08-01T17:14:24.647Z,14.20
2017-08-01T17:16:52.471Z,14.53
2017-08-01T17:19:20.121Z,13.60
2017-08-01T17:21:47.937Z,14.07
2017-08-01T17:24:15.641Z,13.03
2017-08-01T17:26:43.329Z,12.33
2017-08-01T17:29:10.915Z,14.80
2017-08-01T17:31:42.815Z,13.63
2017-08-01T17:34:10.726Z,14.20
2017-08-01T17:36:38.373Z,14.53
2017-08-01T17:39:06.084Z,14.77
2017-08-01T17:41:34.570Z,13.67
2017-08-01T17:44:02.940Z,14.60
2017-08-01T17:46:30.656Z,15.50
2017-08-01T17:48:58.290Z,16.37
2017-08-01T17:51:25.983Z,14.53
2017-08-01T17:53:53.597Z,13.67
2017-08-01T17:56:21.336Z,16.00
2017-08-01T17:58:48.997Z,17.10
2017-08-01T18:01:16.685Z,16.20
2017-08-01T18:03:45.039Z,15.27
2017-08-01T18:06:12.738Z,16.60
2017-08-01T18:08:40.641Z,17.30
2017-08-01T18:11:08.379Z,16.40
2017-08-01T18:13:35.985Z,17.70
2017-08-01T18:16:03.880Z,16.10
2017-08-01T18:18:32.233Z,19.37
2017-08-01T18:20:59.880Z,14.80
2017-08-01T18:23:27.646Z,19.20
2017-08-01T18:25:55.229Z,17.43
2017-08-01T18:28:22.854Z,17.40
2017-08-01T18:30:50.780Z,16.90
2017-08-01T18:33:18.778Z,16.83
2017-08-01T18:35:46.432Z,16.90
2017-08-01T18:38:14.198Z,19.00
2017-08-01T18:40:41.897Z,19.43
2017-08-01T18:43:09.674Z,17.07
2017-08-01T18:45:38.401Z,19.57
2017-08-01T18:48:06.815Z,16.50
2017-08-01T18:50:34.695Z,18.87
2017-08-01T18:53:02.665Z,20.70
2017-08-01T18:55:31.384Z,20.80
2017-08-01T18:58:01.127Z,20.53
2017-08-01T19:00:28.747Z,21.37
2017-08-01T19:02:56.609Z,19.47
2017-08-01T19:05:24.629Z,19.00
2017-08-01T19:07:52.255Z,20.83
2017-08-01T19:10:19.986Z,23.70
2017-08-01T19:12:47.685Z,22.13
2017-08-01T19:15:15.500Z,22.50
2017-08-01T19:17:43.129Z,21.10
2017-08-01T19:20:13.965Z,21.30
2017-08-01T19:22:42.897Z,24.23
2017-08-01T19:25:22.614Z,21.70
2017-08-01T19:27:50.458Z,22.30
2017-08-01T19:30:19.339Z,24.30
2017-08-01T19:32:47.812Z,23.40
2017-08-01T19:35:15.454Z,23.50
2017-08-01T19:37:43.155Z,25.13
2017-08-01T19:40:11.962Z,25.00
2017-08-01T19:42:39.858Z,23.20
2017-08-01T19:45:07.481Z,22.90
2017-08-01T19:47:35.836Z,22.47
2017-08-01T19:50:03.881Z,22.80
2017-08-01T19:52:31.636Z,21.50
2017-08-01T19:54:59.324Z,22.10
2017-08-01T19:57:26.972Z,23.23
2017-08-01T19:59:54.727Z,22.67
2017-08-01T20:02:22.401Z,23.60
2017-08-01T20:04:50.176Z,23.80
2017-08-01T20:07:18.784Z,24.67
2017-08-01T20:09:46.609Z,22.23
2017-08-01T20:12:14.345Z,23.93
2017-08-01T20:14:42.436Z,20.20
2017-08-01T20:17:12.229Z,26.03
2017-08-01T20:19:41.089Z,23.27
2017-08-01T20:22:08.757Z,23.00
2017-08-01T20:24:36.403Z,23.23
2017-08-01T20:27:06.120Z,22.97
2017-08-01T20:29:33.769Z,23.10
2017-08-01T20:32:01.590Z,23.10
2017-08-01T20:34:30.388Z,20.93
2017-08-01T20:36:58.011Z,19.60
2017-08-01T20:39:25.803Z,25.57
2017-08-01T20:41:53.788Z,25.57
2017-08-01T20:44:21.437Z,26.20
2017-08-01T20:46:49.142Z,23.07
2017-08-01T20:49:16.772Z,22.63
2017-08-01T20:51:44.412Z,22.10
2017-08-01T20:54:12.039Z,24.33
2017-08-01T20:56:39.676Z,22.20
2017-08-01T20:59:07.299Z,21.37
2017-08-01T21:01:34.892Z,21.50
2017-08-01T21:04:02.504Z,22.00
2017-08-01T21:06:30.138Z,22.73
2017-08-01T21:08:57.768Z,22.93
2017-08-01T21:11:25.516Z,20.53
2017-08-01T21:13:53.152Z,21.50
2017-08-01T21:16:20.765Z,20.60
2017-08-01T21:18:48.387Z,19.30
2017-08-01T21:21:16.039Z,20.77
2017-08-01T21:23:43.715Z,20.50
2017-08-01T21:26:11.338Z,21.73
2017-08-01T21:28:40.015Z,22.20
2017-08-01T21:31:07.681Z,22.30
2017-08-01T21:33:35.517Z,22.73
2017-08-01T21:36:03.925Z,20.47
2017-08-01T21:38:31.512Z,20.60
2017-08-01T21:40:59.236Z,20.07
2017-08-01T21:43:26.823Z,20.03
2017-08-01T21:45:54.427Z,20.90
2017-08-01T21:48:22.124Z,21.63
2017-08-01T21:50:49.826Z,21.90
2017-08-01T21:53:17.443Z,23.60
2017-08-01T21:55:46.220Z,22.63
2017-08-01T21:58:13.884Z,22.10
2017-08-01T22:00:41.489Z,23.03
2017-08-01T22:03:09.947Z,21.93
2017-08-01T22:05:37.567Z,20.60
2017-08-01T22:08:05.334Z,19.50
2017-08-01T22:10:33.837Z,19.80
2017-08-01T22:13:03.444Z,23.00
2017-08-01T22:15:32.003Z,21.07
2017-08-01T22:17:59.628Z,17.90
2017-08-01T22:20:27.367Z,20.23
2017-08-01T22:22:54.958Z,21.50
2017-08-01T22:25:22.589Z,21.43
2017-08-01T22:27:50.337Z,23.27
2017-08-01T22:30:17.985Z,20.83
2017-08-01T22:32:45.662Z,19.03
2017-08-01T22:35:13.311Z,21.43
2017-08-01T22:37:40.958Z,21.20
2017-08-01T22:40:08.574Z,20.00
2017-08-01T22:42:36.944Z,19.67
2017-08-01T22:45:04.590Z,23.00
2017-08-01T22:47:32.315Z,24.90
2017-08-01T22:49:59.935Z,26.17
2017-08-01T22:52:28.296Z,25.03
2017-08-01T22:54:55.970Z,26.53
2017-08-01T22:57:23.580Z,27.10
2017-08-01T22:59:51.216Z,25.80
2017-08-01T23:02:19.727Z,22.77
2017-08-01T23:04:47.376Z,22.43
2017-08-01T23:07:15.004Z,24.03
2017-08-01T23:09:43.392Z,25.10
2017-08-01T23:12:11.083Z,24.93
2017-08-01T23:14:38.675Z,26.17
2017-08-01T23:17:06.306Z,26.37
2017-08-01T23:19:33.979Z,25.77
2017-08-01T23:22:04.189Z,27.83
2017-08-01T23:24:32.591Z,26.37
2017-08-01T23:27:00.215Z,25.57
2017-08-01T23:29:27.811Z,25.63
2017-08-01T23:31:55.479Z,25.17
2017-08-01T23:34:23.098Z,21.90
2017-08-01T23:36:50.738Z,21.70
2017-08-01T23:39:19.191Z,20.20
2017-08-01T23:41:47.910Z,19.60
2017-08-01T23:44:16.191Z,24.67
2017-08-01T23:46:44.575Z,23.47
2017-08-01T23:49:12.843Z,22.40
2017-08-01T23:51:40.516Z,21.83
2017-08-01T23:54:08.900Z,26.87
2017-08-01T23:56:37.147Z,25.70
2017-08-01T23:59:04.796Z,25.63
